Acton, Texas
Current Conditions -  °F | °C
As of 7:55 AM on Saturday 01 Nov 2014 (Local Time) from KGDJ Reporting Station
Clear Clear  
Wind Chill: 37°   Ceiling: Unl
Heat Index: 37°   Visibility: 10mi
Dew Point: 33°   Wind: 0mph
Humidity: 87%   Direction: NA
Pressure: 30.43"   Gusts: NA
Location:  32.4693°N, 97.7085°W
Report Text: KGDJ 011255Z AUTO 00000KT 10SM CLR 03/01 A3043 RMK AO2 T00260007
Loading
Personal Weather Stations






























Interactive Weather Map
Tropical Storm Tracking
New forecast layout! Learn more

10-Day Weather Forecast

Advertisements
Track Severe Weather on mobile